x

Half Moon Bay - 24nm Ssw Of San Francisco, Ca (46012) Wave Buoy

1:50am - Sun 26th Oct 2014 All times are PDT. -7 hours from GMT.

  • Sig Wave height 12.1ft
  • Swell Direction
  • Peak Period 14s
  • Average Period 9s
  • Wind
    11mph, 13mph gusts
  • Sea Temp 63°f
  • Air Temp 62°f
  • Sea Pressure 1020.8mb
  • Half Moon Bay - 24nm Ssw Of San Francisco, Ca
  • Half Moon Bay - 24nm Ssw Of San Francisco, Ca

More Historic Weather Station data

Upgrade to MSW Pro to gain access to the past 30 days of data for over 8000 Wavebouys and Weather Stations around the globe.

Join Pro

Comparision Forecast

View Surf forecast
   
Sun 10/26 1:50am 12ft 14s 9s 11 13 mph 1020.8mb 63f 62f
12:50am 11.5ft 15s 9s 9 11 mph 1020.7mb 63f 62f
Sat 10/25 11:50pm 12.5ft 14s 10s 9 13 mph 1020.6mb 63f 62f
10:50pm 12ft 15s 9s 9 13 mph 1020.2mb 63f 63f
9:50pm 11.5ft 12s 9s 9 11 mph 1019.8mb 63f 63f
8:50pm 12ft 13s 8s 4 9 mph 1019.2mb 63f 63f
7:50pm 11.5ft 11s 8s 7 11 mph 1018.9mb 63f 64f
6:50pm 13ft 13s 9s 7 9 mph 1018.2mb 63f 64f
5:50pm 13ft 13s 9s 11 13 mph 1017.9mb 63f 64f
4:50pm 11.5ft 13s 9s 9 11 mph 1018mb 63f 64f
3:50pm 13ft 11s 9s 9 11 mph 1017.8mb 63f 64f
2:50pm 11ft 12s 8s 11 13 mph 1017.7mb 63f 64f
1:50pm 11ft 11s 8s 11
mph
1017.8mb 63f 64f
12:50pm 11.5ft 12s 9s 9 11 mph 1017.8mb 63f 64f
11:50am 11ft 11s 8s 11 13 mph 1017.4mb 63f 64f
10:50am 10ft 11s 8s 13 16 mph 1016.8mb 63f 65f
9:50am 9.5ft 11s 7s 11 13 mph 1016mb 63f 64f
8:50am 10ft 11s 7s 16 18 mph 1014.8mb 63f 64f
7:50am 9.5ft 10s 7s 16 18 mph 1013.7mb 63f 63f
6:50am 9ft 9s 7s 18 20 mph 1013.1mb 63f 63f
5:50am 9ft 12s 7s 20 25 mph 1012.5mb 63f 62f
4:50am 9ft 11s 7s 18 22 mph 1012.4mb 63f 61f
3:50am 8ft 6s 6s 16 20 mph 1012.1mb 63f 61f
2:50am 7ft 6s 5s 25 31 mph 1011.4mb 63f 64f
1:50am 7ft 6s 5s 27 31 mph 1011.7mb 63f 63f
12:50am 6ft 12s 5s 27 31 mph 1011.8mb 63f 64f
Fri 10/24 11:50pm 6.5ft 12s 5s 22 27 mph 1011.9mb 63f 63f
10:50pm 5ft 12s 5s 25 29 mph 1012.1mb 63f 63f
9:50pm 5ft 12s 5s 22 27 mph 1011.9mb 63f 63f
8:50pm 6ft 12s 6s 22 27 mph 1011.4mb 63f 64f
7:50pm 5.5ft 13s 6s 20 22 mph 1011.7mb 63f 64f
6:50pm 5.5ft 13s 7s 20 22 mph 1011.4mb 63f 63f
5:50pm 6ft 11s 7s 16 20 mph 1011.6mb 63f 64f
4:50pm 6ft 11s 8s 16 18 mph 1011.9mb 64f 64f
3:50pm 6ft 12s 9s 13 16 mph 1012.5mb 64f 64f
2:50pm 6.5ft 12s 9s 11 16 mph 1012.7mb 64f 63f
1:50pm 7ft 12s 8s 11 16 mph 1013mb 64f 64f
12:50pm 7.5ft 12s 9s 13 16 mph 1013.6mb 63f 63f
11:50am 8ft 12s 9s 13 18 mph 1013.9mb 63f 63f
10:50am 6.5ft 11s 8s 9 13 mph 1014mb 63f 62f
9:50am 7.5ft 12s 9s 13 18 mph 1014mb 63f 61f
8:50am 7.5ft 13s 9s 9 11 mph 1014.1mb 63f 60f
7:50am 8ft 12s 9s 7 9 mph 1013.8mb 63f 59f
6:50am 7.5ft 12s 9s 2 4 mph 1013.6mb 63f 59f
5:50am 7.5ft 12s 9s 2 4 mph 1013.7mb 63f 59f
4:50am 8ft 12s 9s 2 4 mph 1013.7mb 63f 59f
3:50am 8ft 12s 9s 2 4 mph 1013.8mb 63f 59f
2:50am 8.5ft 13s 10s 4 7 mph 1014.2mb 63f 59f
1:50am 8.5ft 12s 10s 4 7 mph 1014.5mb 63f 59f
12:50am 8.5ft 13s 10s 4
mph
1014.6mb 63f 59f
Thu 10/23 11:50pm 8ft 13s 10s 2 4 mph 1014.8mb 63f 60f
10:50pm 8.5ft 11s 10s 7 9 mph 1014.8mb 63f 60f
9:50pm 7.5ft 12s 9s 7 9 mph 1014.7mb 63f 60f
8:50pm 8ft 13s 10s 4 7 mph 1014.5mb 63f 60f
7:50pm 8ft 11s 9s 4 7 mph 1014.6mb 63f 60f
6:50pm 8ft 13s 10s 4 7 mph 1014.8mb 63f 60f
5:50pm 8ft 13s 10s 7 9 mph 1015mb 63f 60f
4:50pm 8ft 14s 10s 4 7 mph 1015.5mb 63f 61f
3:50pm 9.5ft 13s 10s 7 9 mph 1016mb 63f 61f
2:50pm 8ft 11s 9s 4 7 mph 1016.5mb 64f 61f
1:50pm 7.5ft 13s 9s 4
mph
1016.9mb 63f 60f
12:50pm 7.5ft 11s 9s 2 4 mph 1017.6mb 62f 61f
11:50am 9ft 14s 10s 4 7 mph 1018mb 62f 61f
10:50am 9ft 14s 10s 4 9 mph 1017.9mb 62f 61f
9:50am 8ft 13s 9s 2 4 mph 1017.9mb 62f 61f
8:50am 9.5ft 11s 10s 2 4 mph 1017.7mb 62f 61f
7:50am 10.5ft 14s 10s 2 7 mph 1017.1mb 62f 61f
6:50am 9ft 11s 10s 2
mph
1016.8mb 62f 61f
5:50am 11ft 13s 11s 2
mph
1016.5mb 62f 62f
4:50am 9.5ft 13s 10s 4 7 mph 1016.1mb 62f 61f
3:50am 10.5ft 13s 10s 2 4 mph 1016.7mb 62f 62f
2:50am 10ft 13s 10s 2 4 mph 1016.9mb 62f 62f
1:50am 11ft 14s 11s 2 4 mph 1016.8mb 62f 62f
12:50am 9.5ft 13s 10s 2 7 mph 1016.8mb 62f 62f
Wed 10/22 11:50pm 9.5ft 13s 11s 2 4 mph 1016.9mb 62f 62f
10:50pm 9ft 13s 10s 4 7 mph 1017.1mb 62f 62f
9:50pm 8.5ft 13s 10s 2 4 mph 1017.1mb 62f 63f
8:50pm 8ft 13s 9s 4 9 mph 1017.1mb 62f 62f
7:50pm 8.5ft 11s 9s 7 9 mph 1016.8mb 62f 63f
6:50pm 8ft 12s 9s 4 7 mph 1016.7mb 62f 63f
5:50pm 8ft 11s 9s 7 9 mph 1017mb 63f 63f
4:50pm 7ft 13s 9s 7 9 mph 1017.1mb 63f 63f
3:50pm 9ft 13s 9s 7 9 mph 1016.7mb 63f 63f
2:50pm 8.5ft 12s 9s 7 9 mph 1017.1mb 63f 62f
1:50pm 7.5ft 12s 9s 2 4 mph 1017.7mb 63f 62f
12:50pm 8ft 13s 9s 4 7 mph 1018.1mb 62f 62f
11:50am 9ft 13s 9s 4 7 mph 1018.3mb 62f 62f
10:50am 9ft 13s 10s 9 11 mph 1018.4mb 62f 61f